Time,TemperatureF,DewpointF,PressureIn,WindDirection,WindDirectionDegrees,WindSpeedMPH,WindSpeedGustMPH,Humidity,HourlyPrecipIn,Conditions,Clouds,dailyrainin,SoftwareType,DateUTC
2013-03-11 00:05:00,40.6,36.2,29.70,ENE,76,8.1,8.1,84,0.00,,,0.71,WeatherDisplay:10.36,2013-03-11 05:05:00,
2013-03-11 00:10:00,40.5,36.0,29.70,ENE,63,9.6,9.6,84,0.00,,,0.71,WeatherDisplay:10.36,2013-03-11 05:10:00,
2013-03-11 00:15:00,40.3,35.8,29.70,ESE,119,6.9,6.9,84,0.00,,,0.71,WeatherDisplay:10.36,2013-03-11 05:15:00,
2013-03-11 00:20:00,40.1,35.7,29.70,ENE,57,10.4,10.4,84,0.00,,,0.71,WeatherDisplay:10.36,2013-03-11 05:20:00,
2013-03-11 00:25:00,39.9,35.5,29.70,SE,126,10.4,10.4,84,0.00,,,0.71,WeatherDisplay:10.36,2013-03-11 05:25:00,
2013-03-11 00:30:00,39.9,35.5,29.70,SSE,149,9.6,9.6,84,0.00,,,0.71,WeatherDisplay:10.36,2013-03-11 05:30:00,
2013-03-11 00:35:00,39.7,35.3,29.70,East,84,6.9,6.9,84,0.00,,,0.71,WeatherDisplay:10.36,2013-03-11 05:35:00,
2013-03-11 00:40:00,39.7,35.3,29.70,NE,49,6.9,6.9,84,0.00,,,0.71,WeatherDisplay:10.36,2013-03-11 05:40:00,
2013-03-11 00:45:00,39.6,35.1,29.70,East,81,8.3,8.3,84,0.00,,,0.71,WeatherDisplay:10.36,2013-03-11 05:45:00,
2013-03-11 00:50:00,39.4,34.9,29.70,ENE,74,8.1,8.1,84,0.00,,,0.71,WeatherDisplay:10.36,2013-03-11 05:50:00,
2013-03-11 00:55:00,39.4,34.9,29.70,ENE,59,5.8,5.8,84,0.00,,,0.71,WeatherDisplay:10.36,2013-03-11 05:55:00,
2013-03-11 01:00:00,39.2,34.8,29.70,NE,52,6.9,6.9,84,0.00,,,0.71,WeatherDisplay:10.36,2013-03-11 06:00:00,
2013-03-11 01:05:00,39.0,34.6,29.67,ENE,76,9.2,9.2,84,0.00,,,0.71,WeatherDisplay:10.36,2013-03-11 06:05:00,
2013-03-11 01:11:00,38.8,34.4,29.67,NE,47,9.6,9.6,84,0.00,,,0.00,WeatherDisplay:10.36,2013-03-11 06:11:00,
2013-03-11 01:16:00,38.8,34.4,29.67,NE,46,7.8,7.8,84,0.00,,,0.00,WeatherDisplay:10.36,2013-03-11 06:16:00,
2013-03-11 01:21:00,38.7,34.2,29.70,NE,56,8.7,8.7,84,0.00,,,0.00,WeatherDisplay:10.36,2013-03-11 06:21:00,
2013-03-11 01:26:00,38.7,34.2,29.70,ENE,59,9.6,9.6,84,0.00,,,0.00,WeatherDisplay:10.36,2013-03-11 06:26:00,
2013-03-11 01:31:00,38.5,34.1,29.70,NE,49,8.1,8.1,84,0.00,,,0.00,WeatherDisplay:10.36,2013-03-11 06:31:00,
2013-03-11 01:36:00,38.3,33.9,29.70,SE,130,9.6,9.6,84,0.00,,,0.00,WeatherDisplay:10.36,2013-03-11 06:36:00,
2013-03-11 01:41:00,38.1,33.7,29.70,NE,43,7.8,7.8,84,0.00,,,0.00,WeatherDisplay:10.36,2013-03-11 06:41:00,
2013-03-11 01:46:00,37.9,33.5,29.70,East,85,9.2,9.2,84,0.00,,,0.00,WeatherDisplay:10.36,2013-03-11 06:46:00,
2013-03-11 01:51:00,37.9,33.5,29.70,NE,51,9.2,9.2,84,0.00,,,0.00,WeatherDisplay:10.36,2013-03-11 06:51:00,
2013-03-11 01:56:00,37.8,33.4,29.70,NE,54,9.2,9.2,84,0.00,,,0.00,WeatherDisplay:10.36,2013-03-11 06:56:00,
2013-03-11 02:01:00,37.6,33.2,29.70,NE,53,6.9,6.9,84,0.00,,,0.00,WeatherDisplay:10.36,2013-03-11 07:01:00,
2013-03-11 02:06:00,37.4,33.0,29.70,NE,52,5.8,7.8,84,0.00,,,0.00,WeatherDisplay:10.36,2013-03-11 07:06:00,
2013-03-11 02:11:00,37.4,33.0,29.70,ENE,58,8.7,8.7,84,0.00,,,0.00,WeatherDisplay:10.36,2013-03-11 07:11:00,
2013-03-11 02:16:00,37.2,32.5,29.70,NE,51,6.9,6.9,83,0.00,,,0.00,WeatherDisplay:10.36,2013-03-11 07:16:00,
2013-03-11 02:21:00,37.0,32.4,29.70,NE,52,4.9,5.4,83,0.00,,,0.00,WeatherDisplay:10.36,2013-03-11 07:21:00,
2013-03-11 02:26:00,36.9,32.2,29.70,East,98,9.2,9.2,83,0.00,,,0.00,WeatherDisplay:10.36,2013-03-11 07:26:00,
2013-03-11 02:31:00,36.9,32.2,29.70,SE,133,7.8,7.8,83,0.00,,,0.00,WeatherDisplay:10.36,2013-03-11 07:31:00,
2013-03-11 02:36:00,36.7,32.0,29.70,ENE,73,8.3,8.3,83,0.00,,,0.00,WeatherDisplay:10.36,2013-03-11 07:36:00,
2013-03-11 02:41:00,36.7,32.0,29.70,ENE,59,9.2,9.2,83,0.00,,,0.00,WeatherDisplay:10.36,2013-03-11 07:41:00,
2013-03-11 02:46:00,36.5,31.8,29.70,East,84,9.2,9.2,83,0.00,,,0.00,WeatherDisplay:10.36,2013-03-11 07:46:00,
2013-03-11 02:51:00,36.3,31.7,29.70,ENE,58,11.5,11.5,83,0.00,,,0.00,WeatherDisplay:10.36,2013-03-11 07:51:00,
2013-03-11 02:56:00,36.3,31.7,29.70,East,96,6.7,6.7,83,0.00,,,0.00,WeatherDisplay:10.36,2013-03-11 07:56:00,
2013-03-11 03:01:00,36.3,31.7,29.70,NE,49,8.3,8.3,83,0.00,,,0.00,WeatherDisplay:10.36,2013-03-11 08:01:00,
2013-03-11 03:06:00,36.1,31.5,29.70,East,84,7.4,7.4,83,0.00,,,0.00,WeatherDisplay:10.36,2013-03-11 08:06:00,
2013-03-11 03:11:00,36.1,31.5,29.70,SSW,200,11.5,11.5,83,0.00,,,0.00,WeatherDisplay:10.36,2013-03-11 08:11:00,
2013-03-11 03:16:00,36.0,31.3,29.70,ESE,102,6.3,6.3,83,0.00,,,0.00,WeatherDisplay:10.36,2013-03-11 08:16:00,
2013-03-11 03:21:00,36.0,31.3,29.70,NE,47,5.4,6.7,83,0.00,,,0.00,WeatherDisplay:10.36,2013-03-11 08:21:00,
2013-03-11 03:26:00,35.8,31.1,29.70,ENE,70,6.3,6.3,83,0.00,,,0.00,WeatherDisplay:10.36,2013-03-11 08:26:00,
2013-03-11 03:31:00,35.8,31.1,29.70,SE,141,4.0,5.4,83,0.00,,,0.00,WeatherDisplay:10.36,2013-03-11 08:31:00,
2013-03-11 03:36:00,35.6,30.9,29.70,ENE,66,6.3,6.3,83,0.00,,,0.00,WeatherDisplay:10.36,2013-03-11 08:36:00,
2013-03-11 03:41:00,35.8,31.1,29.70,NE,47,8.1,8.1,83,0.00,,,0.00,WeatherDisplay:10.36,2013-03-11 08:41:00,
2013-03-11 03:46:00,35.6,30.9,29.70,NE,49,0.0,4.5,83,0.00,,,0.00,WeatherDisplay:10.36,2013-03-11 08:46:00,
2013-03-11 03:51:00,35.6,30.9,29.67,ENE,71,6.9,6.9,83,0.00,,,0.00,WeatherDisplay:10.36,2013-03-11 08:51:00,
2013-03-11 03:56:00,35.6,30.9,29.67,ESE,106,4.5,5.4,83,0.00,,,0.00,WeatherDisplay:10.36,2013-03-11 08:56:00,
2013-03-11 04:01:00,35.4,30.8,29.67,East,84,4.9,4.9,83,0.00,,,0.00,WeatherDisplay:10.36,2013-03-11 09:01:00,
2013-03-11 04:06:00,35.4,30.8,29.67,NE,45,7.4,7.4,83,0.00,,,0.00,WeatherDisplay:10.36,2013-03-11 09:06:00,
2013-03-11 04:11:00,35.4,30.8,29.67,East,100,7.4,7.4,83,0.00,,,0.00,WeatherDisplay:10.36,2013-03-11 09:11:00,
2013-03-11 04:16:00,35.4,30.8,29.67,NE,51,5.8,5.8,83,0.00,,,0.00,WeatherDisplay:10.36,2013-03-11 09:16:00,
2013-03-11 04:21:00,35.4,30.8,29.67,East,99,6.9,6.9,83,0.00,,,0.00,WeatherDisplay:10.36,2013-03-11 09:21:00,
2013-03-11 04:26:00,35.4,30.8,29.67,ENE,78,8.3,8.3,83,0.00,,,0.00,WeatherDisplay:10.36,2013-03-11 09:26:00,
2013-03-11 04:31:00,35.4,30.8,29.67,NE,46,8.1,8.1,83,0.00,,,0.00,WeatherDisplay:10.36,2013-03-11 09:31:00,
2013-03-11 04:36:00,35.4,30.8,29.67,East,79,6.3,6.3,83,0.00,,,0.00,WeatherDisplay:10.36,2013-03-11 09:36:00,
2013-03-11 04:41:00,35.2,30.6,29.67,East,96,0.0,4.0,83,0.00,,,0.00,WeatherDisplay:10.36,2013-03-11 09:41:00,
2013-03-11 04:46:00,35.2,30.6,29.67,NE,46,8.7,8.7,83,0.00,,,0.00,WeatherDisplay:10.36,2013-03-11 09:46:00,
2013-03-11 04:51:00,35.2,30.6,29.70,NE,53,6.9,6.9,83,0.00,,,0.00,WeatherDisplay:10.36,2013-03-11 09:51:00,
2013-03-11 04:56:00,35.2,30.3,29.70,ENE,76,6.9,6.9,82,0.00,,,0.00,WeatherDisplay:10.36,2013-03-11 09:56:00,
2013-03-11 05:01:00,35.1,30.1,29.70,East,84,8.3,8.3,82,0.00,,,0.00,WeatherDisplay:10.36,2013-03-11 10:01:00,
2013-03-11 05:06:00,35.1,30.1,29.70,NE,45,6.9,6.9,82,0.00,,,0.00,WeatherDisplay:10.36,2013-03-11 10:06:00,
2013-03-11 05:11:00,35.1,30.1,29.70,NE,47,7.4,7.4,82,0.00,,,0.00,WeatherDisplay:10.36,2013-03-11 10:11:00,
2013-03-11 05:16:00,34.9,29.9,29.70,East,83,5.8,5.8,82,0.00,,,0.00,WeatherDisplay:10.36,2013-03-11 10:16:00,
2013-03-11 05:21:00,35.1,30.1,29.70,East,92,6.3,6.3,82,0.00,,,0.00,WeatherDisplay:10.36,2013-03-11 10:21:00,
2013-03-11 05:26:00,35.1,30.1,29.70,NE,53,5.8,5.8,82,0.00,,,0.00,WeatherDisplay:10.36,2013-03-11 10:26:00,
2013-03-11 05:31:00,35.2,30.3,29.70,East,98,6.9,6.9,82,0.00,,,0.00,WeatherDisplay:10.36,2013-03-11 10:31:00,
2013-03-11 05:36:00,35.6,30.6,29.70,East,87,5.8,5.8,82,0.00,,,0.00,WeatherDisplay:10.36,2013-03-11 10:36:00,
2013-03-11 05:41:00,36.0,31.3,29.70,NE,51,9.2,9.2,83,0.00,,,0.00,WeatherDisplay:10.36,2013-03-11 10:41:00,
2013-03-11 05:46:00,36.0,31.0,29.70,NE,49,8.1,8.1,82,0.00,,,0.00,WeatherDisplay:10.36,2013-03-11 10:46:00,
2013-03-11 05:51:00,35.8,30.8,29.70,NE,52,6.3,6.3,82,0.00,,,0.00,WeatherDisplay:10.36,2013-03-11 10:51:00,
2013-03-11 05:56:00,35.8,30.8,29.70,NE,50,5.8,5.8,82,0.00,,,0.00,WeatherDisplay:10.36,2013-03-11 10:56:00,
2013-03-11 06:01:00,35.8,30.8,29.70,NE,47,7.4,7.4,82,0.00,,,0.00,WeatherDisplay:10.36,2013-03-11 11:01:00,
2013-03-11 06:03:00,35.8,30.8,29.70,NE,47,7.8,7.8,82,0.00,,,0.00,WeatherDisplay:10.36,2013-03-11 11:03:00,
2013-03-11 06:06:00,35.8,30.8,29.70,NE,52,9.2,9.2,82,0.00,,,0.00,WeatherDisplay:10.36,2013-03-11 11:06:00,
2013-03-11 06:11:00,35.8,30.8,29.70,NE,47,7.8,7.8,82,0.00,,,0.00,WeatherDisplay:10.36,2013-03-11 11:11:00,
2013-03-11 06:18:00,35.6,30.6,29.70,ENE,77,9.2,9.2,82,0.00,,,0.00,WeatherDisplay:10.36,2013-03-11 11:18:00,
2013-03-11 06:23:00,35.6,30.3,29.70,East,98,6.9,6.9,81,0.00,,,0.00,WeatherDisplay:10.36,2013-03-11 11:23:00,
2013-03-11 06:28:00,35.2,30.0,29.70,NE,49,6.9,6.9,81,0.00,,,0.00,WeatherDisplay:10.36,2013-03-11 11:28:00,
2013-03-11 06:33:00,35.1,29.8,29.70,ENE,78,8.3,8.3,81,0.00,,,0.00,WeatherDisplay:10.36,2013-03-11 11:33:00,
2013-03-11 06:38:00,34.9,29.6,29.70,ENE,75,9.6,9.6,81,0.00,,,0.00,WeatherDisplay:10.36,2013-03-11 11:38:00,
2013-03-11 06:43:00,34.9,29.6,29.70,NE,54,9.2,9.2,81,0.00,,,0.00,WeatherDisplay:10.36,2013-03-11 11:43:00,
2013-03-11 06:48:00,34.9,29.6,29.70,ENE,64,6.9,6.9,81,0.00,,,0.00,WeatherDisplay:10.36,2013-03-11 11:48:00,
2013-03-11 06:53:00,34.7,29.5,29.70,NE,51,9.6,9.6,81,0.00,,,0.00,WeatherDisplay:10.36,2013-03-11 11:53:00,
2013-03-11 06:58:00,34.5,29.3,29.70,ENE,77,6.7,6.7,81,0.00,,,0.00,WeatherDisplay:10.36,2013-03-11 11:58:00,
2013-03-11 07:03:00,34.5,29.3,29.70,SSE,148,9.2,9.2,81,0.00,,,0.00,WeatherDisplay:10.36,2013-03-11 12:03:00,
2013-03-11 07:09:00,34.5,29.3,29.70,ENE,73,5.4,5.4,81,0.00,,,0.00,WeatherDisplay:10.36,2013-03-11 12:09:00,
2013-03-11 07:14:00,34.5,29.0,29.70,East,89,6.9,6.9,80,0.00,,,0.00,WeatherDisplay:10.36,2013-03-11 12:14:00,
2013-03-11 07:20:00,34.3,28.8,29.70,NE,53,7.4,7.4,80,0.00,,,0.00,WeatherDisplay:10.36,2013-03-11 12:20:00,
2013-03-11 07:25:00,34.3,28.8,29.70,NE,54,9.2,9.2,80,0.00,,,0.00,WeatherDisplay:10.36,2013-03-11 12:25:00,
2013-03-11 07:30:00,34.3,28.8,29.70,NE,45,9.2,9.2,80,0.00,,,0.00,WeatherDisplay:10.36,2013-03-11 12:30:00,
2013-03-11 07:35:00,34.3,28.8,29.70,SE,137,6.9,6.9,80,0.00,,,0.00,WeatherDisplay:10.36,2013-03-11 12:35:00,
2013-03-11 07:40:00,34.3,28.8,29.70,NE,55,7.4,7.4,80,0.00,,,0.00,WeatherDisplay:10.36,2013-03-11 12:40:00,
2013-03-11 07:45:00,34.2,28.6,29.70,East,88,10.4,10.4,80,0.00,,,0.00,WeatherDisplay:10.36,2013-03-11 12:45:00,
2013-03-11 07:50:00,34.0,28.5,29.70,NE,49,10.9,10.9,80,0.00,,,0.00,WeatherDisplay:10.36,2013-03-11 12:50:00,
2013-03-11 07:55:00,34.0,28.5,29.70,ENE,62,9.6,9.6,80,0.00,,,0.00,WeatherDisplay:10.36,2013-03-11 12:55:00,
2013-03-11 08:00:00,34.0,28.5,29.70,NE,53,7.4,7.4,80,0.00,,,0.00,WeatherDisplay:10.36,2013-03-11 13:00:00,
2013-03-11 08:07:00,34.0,28.5,29.70,NE,45,10.1,10.1,80,0.00,,,0.00,WeatherDisplay:10.36,2013-03-11 13:07:00,
2013-03-11 08:12:00,34.0,28.5,29.70,NE,48,6.7,6.7,80,0.00,,,0.00,WeatherDisplay:10.36,2013-03-11 13:12:00,
2013-03-11 08:17:00,34.0,28.5,29.70,NE,49,7.4,7.4,80,0.00,,,0.00,WeatherDisplay:10.36,2013-03-11 13:17:00,
2013-03-11 08:22:00,34.0,28.5,29.70,NE,49,8.7,8.7,80,0.00,,,0.00,WeatherDisplay:10.36,2013-03-11 13:22:00,
2013-03-11 08:27:00,33.8,28.3,29.70,NE,49,6.9,6.9,80,0.00,,,0.00,WeatherDisplay:10.36,2013-03-11 13:27:00,
2013-03-11 08:32:00,33.8,28.3,29.70,NE,47,8.1,8.1,80,0.00,,,0.00,WeatherDisplay:10.36,2013-03-11 13:32:00,
2013-03-11 08:37:00,33.8,28.3,29.70,NE,48,5.8,5.8,80,0.00,,,0.00,WeatherDisplay:10.36,2013-03-11 13:37:00,
2013-03-11 08:42:00,33.8,28.3,29.70,NE,46,7.4,7.4,80,0.00,,,0.00,WeatherDisplay:10.36,2013-03-11 13:42:00,
2013-03-11 08:47:00,33.8,28.3,29.70,NE,48,10.5,10.5,80,0.00,,,0.00,WeatherDisplay:10.36,2013-03-11 13:47:00,
2013-03-11 08:52:00,33.8,28.3,29.73,NE,47,7.8,7.8,80,0.00,,,0.00,WeatherDisplay:10.36,2013-03-11 13:52:00,
2013-03-11 08:57:00,33.8,28.3,29.73,NE,46,9.2,9.2,80,0.00,,,0.00,WeatherDisplay:10.36,2013-03-11 13:57:00,
2013-03-11 09:02:00,33.8,28.6,29.73,NE,46,6.7,6.7,81,0.00,,,0.00,WeatherDisplay:10.36,2013-03-11 14:02:00,
2013-03-11 09:07:00,33.8,28.3,29.73,NE,45,6.9,6.9,80,0.00,,,0.00,WeatherDisplay:10.36,2013-03-11 14:07:00,
2013-03-11 09:12:00,33.8,28.3,29.73,NE,48,6.9,6.9,80,0.00,,,0.00,WeatherDisplay:10.36,2013-03-11 14:12:00,
2013-03-11 09:17:00,33.6,28.1,29.73,NE,47,6.3,6.3,80,0.00,,,0.00,WeatherDisplay:10.36,2013-03-11 14:17:00,
2013-03-11 09:23:00,33.6,28.4,29.73,NE,44,7.4,7.4,81,0.00,,,0.00,WeatherDisplay:10.36,2013-03-11 14:23:00,
2013-03-11 09:28:00,33.6,28.4,29.73,NE,44,11.6,11.6,81,0.00,,,0.00,WeatherDisplay:10.36,2013-03-11 14:28:00,
2013-03-11 09:33:00,33.6,28.4,29.73,NE,48,7.4,7.4,81,0.00,,,0.00,WeatherDisplay:10.36,2013-03-11 14:33:00,
2013-03-11 09:38:00,33.6,28.4,29.73,NE,48,8.1,8.1,81,0.00,,,0.00,WeatherDisplay:10.36,2013-03-11 14:38:00,
2013-03-11 09:44:00,33.6,28.4,29.73,NE,49,6.9,6.9,81,0.00,,,0.00,WeatherDisplay:10.36,2013-03-11 14:44:00,
2013-03-11 09:49:00,33.6,28.4,29.73,NE,50,6.9,6.9,81,0.00,,,0.00,WeatherDisplay:10.36,2013-03-11 14:49:00,
2013-03-11 09:55:00,33.6,28.4,29.73,NE,48,5.8,5.8,81,0.00,,,0.00,WeatherDisplay:10.36,2013-03-11 14:55:00,
2013-03-11 10:00:00,33.6,28.4,29.73,NE,45,8.3,8.3,81,0.00,,,0.00,WeatherDisplay:10.36,2013-03-11 15:00:00,
2013-03-11 10:05:00,33.6,28.4,29.73,NE,46,11.6,11.6,81,0.00,,,0.00,WeatherDisplay:10.36,2013-03-11 15:05:00,
2013-03-11 10:10:00,33.4,28.2,29.73,NE,49,10.1,10.1,81,0.00,,,0.00,WeatherDisplay:10.36,2013-03-11 15:10:00,
2013-03-11 10:15:00,33.4,28.2,29.73,NE,45,8.1,8.1,81,0.00,,,0.00,WeatherDisplay:10.36,2013-03-11 15:15:00,
2013-03-11 10:21:00,33.4,28.2,29.76,NE,47,5.8,6.7,81,0.00,,,0.00,WeatherDisplay:10.36,2013-03-11 15:21:00,
2013-03-11 10:26:00,33.4,28.2,29.76,NE,49,6.9,6.9,81,0.00,,,0.00,WeatherDisplay:10.36,2013-03-11 15:26:00,
2013-03-11 10:31:00,33.4,28.2,29.76,NE,49,9.6,9.6,81,0.00,,,0.00,WeatherDisplay:10.36,2013-03-11 15:31:00,
2013-03-11 10:36:00,33.4,28.2,29.76,NE,50,10.9,10.9,81,0.00,,,0.00,WeatherDisplay:10.36,2013-03-11 15:36:00,
2013-03-11 10:41:00,33.4,28.2,29.76,NE,46,9.2,9.2,81,0.00,,,0.00,WeatherDisplay:10.36,2013-03-11 15:41:00,
2013-03-11 10:46:00,33.4,28.2,29.76,NE,49,5.8,6.3,81,0.00,,,0.00,WeatherDisplay:10.36,2013-03-11 15:46:00,
2013-03-11 10:51:00,33.4,28.2,29.76,NE,44,8.1,8.1,81,0.00,,,0.00,WeatherDisplay:10.36,2013-03-11 15:51:00,
2013-03-11 10:56:00,33.4,28.2,29.76,NE,49,6.9,6.9,81,0.00,,,0.00,WeatherDisplay:10.36,2013-03-11 15:56:00,
2013-03-11 11:02:00,33.4,28.2,29.76,NE,44,8.1,8.1,81,0.00,,,0.00,WeatherDisplay:10.36,2013-03-11 16:02:00,
2013-03-11 11:07:00,33.4,28.2,29.76,NE,49,6.9,6.9,81,0.00,,,0.00,WeatherDisplay:10.36,2013-03-11 16:07:00,
2013-03-11 11:12:00,33.4,28.2,29.76,NE,50,7.4,7.4,81,0.00,,,0.00,WeatherDisplay:10.36,2013-03-11 16:12:00,
2013-03-11 11:18:00,33.6,28.4,29.76,NE,46,7.4,7.4,81,0.00,,,0.00,WeatherDisplay:10.36,2013-03-11 16:18:00,
2013-03-11 11:23:00,33.6,28.4,29.76,NE,48,6.9,6.9,81,0.00,,,0.00,WeatherDisplay:10.36,2013-03-11 16:23:00,
2013-03-11 11:28:00,33.6,28.4,29.76,NE,50,7.8,7.8,81,0.00,,,0.00,WeatherDisplay:10.36,2013-03-11 16:28:00,
2013-03-11 11:33:00,33.6,28.4,29.76,NE,47,6.9,6.9,81,0.00,,,0.00,WeatherDisplay:10.36,2013-03-11 16:33:00,
2013-03-11 11:38:00,33.6,28.4,29.76,NE,45,7.4,7.4,81,0.00,,,0.00,WeatherDisplay:10.36,2013-03-11 16:38:00,
2013-03-11 11:43:00,33.6,28.4,29.76,NE,44,6.9,6.9,81,0.00,,,0.00,WeatherDisplay:10.36,2013-03-11 16:43:00,
2013-03-11 11:48:00,33.8,28.6,29.76,NE,48,6.3,6.3,81,0.00,,,0.00,WeatherDisplay:10.36,2013-03-11 16:48:00,
2013-03-11 11:53:00,33.6,28.4,29.76,NE,50,6.9,6.9,81,0.00,,,0.00,WeatherDisplay:10.36,2013-03-11 16:53:00,
2013-03-11 11:58:00,33.6,28.1,29.76,NE,46,9.2,9.2,80,0.00,,,0.00,WeatherDisplay:10.36,2013-03-11 16:58:00,
2013-03-11 12:03:00,33.6,28.1,29.76,NE,51,9.2,9.2,80,0.00,,,0.00,WeatherDisplay:10.36,2013-03-11 17:03:00,
2013-03-11 12:09:00,33.6,28.1,29.76,NE,50,9.2,9.2,80,0.00,,,0.00,WeatherDisplay:10.36,2013-03-11 17:09:00,
2013-03-11 12:14:00,33.8,28.3,29.76,NE,49,9.2,9.2,80,0.00,,,0.00,WeatherDisplay:10.36,2013-03-11 17:14:00,
2013-03-11 12:19:00,33.8,28.3,29.76,NE,46,9.2,9.2,80,0.00,,,0.00,WeatherDisplay:10.36,2013-03-11 17:19:00,
2013-03-11 12:24:00,33.8,28.3,29.76,NE,47,9.2,9.2,80,0.00,,,0.00,WeatherDisplay:10.36,2013-03-11 17:24:00,
2013-03-11 12:29:00,33.8,28.3,29.76,NE,46,8.1,8.1,80,0.00,,,0.00,WeatherDisplay:10.36,2013-03-11 17:29:00,
2013-03-11 12:34:00,33.8,28.3,29.76,NE,46,9.6,9.6,80,0.00,,,0.00,WeatherDisplay:10.36,2013-03-11 17:34:00,
2013-03-11 12:39:00,33.8,28.0,29.76,NE,50,9.2,9.2,79,0.00,,,0.00,WeatherDisplay:10.36,2013-03-11 17:39:00,
2013-03-11 12:44:00,33.8,28.0,29.76,NE,44,8.1,8.1,79,0.00,,,0.00,WeatherDisplay:10.36,2013-03-11 17:44:00,
2013-03-11 12:49:00,33.8,28.0,29.76,NE,47,8.1,8.1,79,0.00,,,0.00,WeatherDisplay:10.36,2013-03-11 17:49:00,
2013-03-11 12:54:00,33.8,28.0,29.76,NE,45,10.5,10.5,79,0.00,,,0.00,WeatherDisplay:10.36,2013-03-11 17:54:00,
2013-03-11 12:59:00,33.8,28.0,29.76,NE,45,10.4,10.4,79,0.00,,,0.00,WeatherDisplay:10.36,2013-03-11 17:59:00,
2013-03-11 13:04:00,33.8,28.0,29.76,NE,47,10.9,10.9,79,0.00,,,0.00,WeatherDisplay:10.36,2013-03-11 18:04:00,
2013-03-11 13:09:00,33.8,27.7,29.76,NE,48,9.2,9.2,78,0.00,,,0.00,WeatherDisplay:10.36,2013-03-11 18:09:00,
2013-03-11 13:14:00,34.0,27.8,29.76,NE,45,7.4,7.4,78,0.00,,,0.00,WeatherDisplay:10.36,2013-03-11 18:14:00,
2013-03-11 13:19:00,34.3,28.5,29.76,NE,48,6.9,6.9,79,0.00,,,0.00,WeatherDisplay:10.36,2013-03-11 18:19:00,
2013-03-11 13:24:00,34.5,28.7,29.76,NE,46,9.2,9.2,79,0.00,,,0.00,WeatherDisplay:10.36,2013-03-11 18:24:00,
2013-03-11 13:29:00,34.5,28.4,29.76,NE,47,9.2,9.2,78,0.00,,,0.00,WeatherDisplay:10.36,2013-03-11 18:29:00,
2013-03-11 13:34:00,34.7,28.5,29.76,NE,48,9.2,9.2,78,0.00,,,0.00,WeatherDisplay:10.36,2013-03-11 18:34:00,
2013-03-11 13:39:00,34.7,28.5,29.76,NE,48,9.2,9.2,78,0.00,,,0.00,WeatherDisplay:10.36,2013-03-11 18:39:00,
2013-03-11 13:44:00,34.9,28.7,29.76,ENE,74,7.4,7.4,78,0.00,,,0.00,WeatherDisplay:10.36,2013-03-11 18:44:00,
2013-03-11 13:50:00,35.1,28.6,29.76,NE,50,6.3,6.3,77,0.00,,,0.00,WeatherDisplay:10.36,2013-03-11 18:50:00,
2013-03-11 13:55:00,35.2,28.8,29.76,NE,48,9.2,9.2,77,0.00,,,0.00,WeatherDisplay:10.36,2013-03-11 18:55:00,
2013-03-11 14:00:00,35.2,28.4,29.76,NE,51,13.0,13.0,76,0.00,,,0.00,WeatherDisplay:10.36,2013-03-11 19:00:00,
2013-03-11 14:05:00,35.4,28.6,29.76,NE,53,9.2,9.2,76,0.00,,,0.00,WeatherDisplay:10.36,2013-03-11 19:05:00,
2013-03-11 14:10:00,35.6,28.8,29.76,NE,45,9.2,9.2,76,0.00,,,0.00,WeatherDisplay:10.36,2013-03-11 19:10:00,
2013-03-11 14:15:00,35.6,28.5,29.76,NE,53,11.5,11.5,75,0.00,,,0.00,WeatherDisplay:10.36,2013-03-11 19:15:00,
2013-03-11 14:20:00,35.6,28.1,29.76,SSE,161,9.2,9.2,74,0.00,,,0.00,WeatherDisplay:10.36,2013-03-11 19:20:00,
2013-03-11 14:25:00,35.6,27.8,29.76,East,80,10.5,10.5,73,0.00,,,0.00,WeatherDisplay:10.36,2013-03-11 19:25:00,
2013-03-11 14:30:00,35.8,28.0,29.76,ENE,65,9.2,9.2,73,0.00,,,0.00,WeatherDisplay:10.36,2013-03-11 19:30:00,
2013-03-11 14:35:00,35.8,27.6,29.76,ENE,66,11.5,11.5,72,0.00,,,0.00,WeatherDisplay:10.36,2013-03-11 19:35:00,
2013-03-11 14:41:00,36.0,27.5,29.76,ENE,57,0.0,6.9,71,0.00,,,0.00,WeatherDisplay:10.36,2013-03-11 19:41:00,
2013-03-11 14:46:00,36.1,27.6,29.76,ENE,63,7.4,7.4,71,0.00,,,0.00,WeatherDisplay:10.36,2013-03-11 19:46:00,
2013-03-11 14:51:00,36.5,27.6,29.79,NE,47,5.8,6.3,70,0.00,,,0.00,WeatherDisplay:10.36,2013-03-11 19:51:00,
2013-03-11 14:57:00,36.5,27.3,29.79,ENE,65,6.7,6.7,69,0.00,,,0.00,WeatherDisplay:10.36,2013-03-11 19:57:00,
2013-03-11 15:02:00,36.7,27.5,29.79,NE,47,8.3,8.3,69,0.00,,,0.00,WeatherDisplay:10.36,2013-03-11 20:02:00,
2013-03-11 15:07:00,37.0,27.5,29.79,ENE,58,7.4,7.4,68,0.00,,,0.00,WeatherDisplay:10.36,2013-03-11 20:07:00,
2013-03-11 15:12:00,37.0,27.1,29.79,East,84,10.1,10.1,67,0.00,,,0.00,WeatherDisplay:10.36,2013-03-11 20:12:00,
2013-03-11 15:17:00,37.2,26.9,29.79,East,93,8.1,8.1,66,0.00,,,0.00,WeatherDisplay:10.36,2013-03-11 20:17:00,
2013-03-11 15:23:00,37.4,27.1,29.79,NE,47,12.7,12.7,66,0.00,,,0.00,WeatherDisplay:10.36,2013-03-11 20:23:00,
2013-03-11 15:28:00,37.6,26.9,29.79,ESE,114,10.4,10.4,65,0.00,,,0.00,WeatherDisplay:10.36,2013-03-11 20:28:00,
2013-03-11 15:33:00,37.6,26.1,29.79,ENE,66,9.6,9.6,63,0.00,,,0.00,WeatherDisplay:10.36,2013-03-11 20:33:00,
2013-03-11 15:38:00,37.6,25.7,29.79,ENE,67,10.5,10.5,62,0.00,,,0.00,WeatherDisplay:10.36,2013-03-11 20:38:00,
2013-03-11 15:43:00,37.4,25.2,29.79,ENE,57,13.0,13.0,61,0.00,,,0.00,WeatherDisplay:10.36,2013-03-11 20:43:00,
2013-03-11 15:48:00,37.4,24.8,29.79,NE,47,10.4,10.4,60,0.00,,,0.00,WeatherDisplay:10.36,2013-03-11 20:48:00,
2013-03-11 15:53:00,37.2,24.6,29.79,NE,52,6.9,6.9,60,0.00,,,0.00,WeatherDisplay:10.36,2013-03-11 20:53:00,
2013-03-11 15:58:00,37.0,24.0,29.79,NE,53,10.4,10.4,59,0.00,,,0.00,WeatherDisplay:10.36,2013-03-11 20:58:00,
2013-03-11 16:03:00,36.9,23.9,29.79,ENE,61,9.6,9.6,59,0.00,,,0.00,WeatherDisplay:10.36,2013-03-11 21:03:00,
2013-03-11 16:08:00,36.7,23.3,29.79,NE,53,10.4,10.4,58,0.00,,,0.00,WeatherDisplay:10.36,2013-03-11 21:08:00,
2013-03-11 16:13:00,36.7,23.3,29.79,NE,55,9.2,9.2,58,0.00,,,0.00,WeatherDisplay:10.36,2013-03-11 21:13:00,
2013-03-11 16:18:00,36.5,23.5,29.82,NE,53,8.3,8.3,59,0.00,,,0.00,WeatherDisplay:10.36,2013-03-11 21:18:00,
2013-03-11 16:23:00,36.5,23.5,29.82,East,82,8.1,8.1,59,0.00,,,0.00,WeatherDisplay:10.36,2013-03-11 21:23:00,
2013-03-11 16:28:00,36.3,23.3,29.82,NE,47,6.7,6.7,59,0.00,,,0.00,WeatherDisplay:10.36,2013-03-11 21:28:00,
2013-03-11 16:33:00,36.3,23.3,29.82,NE,54,9.6,9.6,59,0.00,,,0.00,WeatherDisplay:10.36,2013-03-11 21:33:00,
2013-03-11 16:38:00,36.5,23.5,29.82,ENE,58,5.4,5.4,59,0.00,,,0.00,WeatherDisplay:10.36,2013-03-11 21:38:00,
2013-03-11 16:43:00,36.7,23.7,29.82,ENE,57,10.5,10.5,59,0.00,,,0.00,WeatherDisplay:10.36,2013-03-11 21:43:00,
2013-03-11 16:48:00,36.7,23.7,29.82,ENE,73,9.6,9.6,59,0.00,,,0.00,WeatherDisplay:10.36,2013-03-11 21:48:00,
2013-03-11 16:53:00,36.7,23.7,29.82,NE,50,9.2,9.2,59,0.00,,,0.00,WeatherDisplay:10.36,2013-03-11 21:53:00,
2013-03-11 16:58:00,36.5,23.5,29.82,East,91,6.3,6.3,59,0.00,,,0.00,WeatherDisplay:10.36,2013-03-11 21:58:00,
2013-03-11 17:03:00,36.5,23.5,29.82,NE,49,8.1,8.1,59,0.00,,,0.00,WeatherDisplay:10.36,2013-03-11 22:03:00,
2013-03-11 17:08:00,36.3,23.3,29.82,ENE,60,6.9,6.9,59,0.00,,,0.00,WeatherDisplay:10.36,2013-03-11 22:08:00,
2013-03-11 17:13:00,36.3,23.3,29.82,NE,48,6.9,6.9,59,0.00,,,0.00,WeatherDisplay:10.36,2013-03-11 22:13:00,
2013-03-11 17:18:00,36.3,23.3,29.82,East,84,7.4,7.4,59,0.00,,,0.00,WeatherDisplay:10.36,2013-03-11 22:18:00,
2013-03-11 17:23:00,36.3,23.3,29.82,NE,54,7.4,7.4,59,0.00,,,0.00,WeatherDisplay:10.36,2013-03-11 22:23:00,
2013-03-11 17:28:00,36.3,23.3,29.82,SE,144,9.2,9.2,59,0.00,,,0.00,WeatherDisplay:10.36,2013-03-11 22:28:00,
2013-03-11 17:33:00,36.1,23.2,29.82,NE,49,15.0,15.0,59,0.00,,,0.00,WeatherDisplay:10.36,2013-03-11 22:33:00,
2013-03-11 17:38:00,36.1,23.2,29.82,ENE,61,9.2,9.2,59,0.00,,,0.00,WeatherDisplay:10.36,2013-03-11 22:38:00,
2013-03-11 17:43:00,36.1,23.6,29.82,NE,52,8.1,8.1,60,0.00,,,0.00,WeatherDisplay:10.36,2013-03-11 22:43:00,
2013-03-11 17:48:00,36.0,23.4,29.82,East,98,6.3,6.3,60,0.00,,,0.00,WeatherDisplay:10.36,2013-03-11 22:48:00,
2013-03-11 17:53:00,36.0,23.4,29.82,ENE,60,8.1,8.1,60,0.00,,,0.00,WeatherDisplay:10.36,2013-03-11 22:53:00,
2013-03-11 17:58:00,35.8,23.2,29.82,NE,51,6.9,6.9,60,0.00,,,0.00,WeatherDisplay:10.36,2013-03-11 22:58:00,
2013-03-11 18:03:00,35.8,23.2,29.85,NE,55,9.2,9.2,60,0.00,,,0.00,WeatherDisplay:10.36,2013-03-11 23:03:00,
2013-03-11 18:08:00,35.6,23.1,29.85,NE,52,6.9,6.9,60,0.00,,,0.00,WeatherDisplay:10.36,2013-03-11 23:08:00,
2013-03-11 18:13:00,35.4,22.9,29.85,ESE,104,8.3,8.3,60,0.00,,,0.00,WeatherDisplay:10.36,2013-03-11 23:13:00,
2013-03-11 18:18:00,35.4,22.9,29.85,ENE,60,9.2,9.2,60,0.00,,,0.00,WeatherDisplay:10.36,2013-03-11 23:18:00,
2013-03-11 18:23:00,35.2,22.7,29.85,NE,48,5.8,5.8,60,0.00,,,0.00,WeatherDisplay:10.36,2013-03-11 23:23:00,
2013-03-11 18:28:00,35.2,22.7,29.85,ESE,123,6.9,6.9,60,0.00,,,0.00,WeatherDisplay:10.36,2013-03-11 23:28:00,
2013-03-11 18:33:00,35.1,22.6,29.85,NE,50,7.4,7.4,60,0.00,,,0.00,WeatherDisplay:10.36,2013-03-11 23:33:00,
2013-03-11 18:38:00,35.1,22.6,29.85,NE,54,6.9,6.9,60,0.00,,,0.00,WeatherDisplay:10.36,2013-03-11 23:38:00,
2013-03-11 18:43:00,35.1,22.6,29.85,ENE,59,4.9,4.9,60,0.00,,,0.00,WeatherDisplay:10.36,2013-03-11 23:43:00,
2013-03-11 18:49:00,35.1,23.0,29.85,East,94,8.3,8.3,61,0.00,,,0.00,WeatherDisplay:10.36,2013-03-11 23:49:00,
2013-03-11 18:54:00,35.1,23.0,29.85,ENE,75,6.9,6.9,61,0.00,,,0.00,WeatherDisplay:10.36,2013-03-11 23:54:00,
2013-03-11 19:00:00,35.2,23.1,29.85,East,89,6.3,6.3,61,0.00,,,0.00,WeatherDisplay:10.36,2013-03-12 00:00:00,
2013-03-11 19:05:00,35.4,23.7,29.85,ENE,62,7.4,7.4,62,0.00,,,0.00,WeatherDisplay:10.36,2013-03-12 00:05:00,
2013-03-11 19:10:00,35.6,24.2,29.85,NE,51,9.2,9.2,63,0.00,,,0.00,WeatherDisplay:10.36,2013-03-12 00:10:00,
2013-03-11 19:15:00,35.6,24.2,29.85,East,79,5.8,5.8,63,0.00,,,0.00,WeatherDisplay:10.36,2013-03-12 00:15:00,
2013-03-11 19:20:00,35.6,24.6,29.88,SE,138,6.7,6.7,64,0.00,,,0.00,WeatherDisplay:10.36,2013-03-12 00:20:00,
2013-03-11 19:25:00,35.4,24.4,29.88,NE,41,6.9,6.9,64,0.00,,,0.00,WeatherDisplay:10.36,2013-03-12 00:25:00,
2013-03-11 19:30:00,35.6,25.0,29.88,ENE,68,6.3,6.3,65,0.00,,,0.00,WeatherDisplay:10.36,2013-03-12 00:30:00,
2013-03-11 19:35:00,35.6,25.0,29.88,NE,56,6.7,6.7,65,0.00,,,0.00,WeatherDisplay:10.36,2013-03-12 00:35:00,
2013-03-11 19:40:00,35.6,25.0,29.88,East,82,6.9,6.9,65,0.00,,,0.00,WeatherDisplay:10.36,2013-03-12 00:40:00,
2013-03-11 19:45:00,35.4,24.8,29.88,NE,46,6.9,6.9,65,0.00,,,0.00,WeatherDisplay:10.36,2013-03-12 00:45:00,
2013-03-11 19:50:00,35.4,24.4,29.88,NE,50,5.4,5.4,64,0.00,,,0.00,WeatherDisplay:10.36,2013-03-12 00:50:00,
2013-03-11 19:55:00,35.1,24.1,29.88,NE,46,5.8,5.8,64,0.00,,,0.00,WeatherDisplay:10.36,2013-03-12 00:55:00,
2013-03-11 20:00:00,34.9,23.2,29.88,ENE,59,5.8,5.8,62,0.00,,,0.00,WeatherDisplay:10.36,2013-03-12 01:00:00,
2013-03-11 20:05:00,34.9,23.2,29.91,ENE,59,4.6,4.6,62,0.00,,,0.00,WeatherDisplay:10.36,2013-03-12 01:05:00,
2013-03-11 20:10:00,34.7,23.0,29.91,NE,46,6.3,6.3,62,0.00,,,0.00,WeatherDisplay:10.36,2013-03-12 01:10:00,
2013-03-11 20:15:00,34.5,22.4,29.91,ENE,73,6.9,6.9,61,0.00,,,0.00,WeatherDisplay:10.36,2013-03-12 01:15:00,
2013-03-11 20:20:00,34.5,22.4,29.91,NE,53,3.6,3.6,61,0.00,,,0.00,WeatherDisplay:10.36,2013-03-12 01:20:00,
2013-03-11 20:25:00,34.3,22.3,29.91,East,82,6.9,6.9,61,0.00,,,0.00,WeatherDisplay:10.36,2013-03-12 01:25:00,
2013-03-11 20:30:00,34.3,21.9,29.91,NE,53,3.5,0.0,60,0.00,,,0.00,WeatherDisplay:10.36,2013-03-12 01:30:00,
2013-03-11 20:35:00,34.3,21.9,29.91,SE,135,5.8,5.8,60,0.00,,,0.00,WeatherDisplay:10.36,2013-03-12 01:35:00,
2013-03-11 20:40:00,34.3,21.9,29.91,ENE,66,4.6,0.0,60,0.00,,,0.00,WeatherDisplay:10.36,2013-03-12 01:40:00,
2013-03-11 20:45:00,34.2,21.7,29.91,East,81,7.4,7.4,60,0.00,,,0.00,WeatherDisplay:10.36,2013-03-12 01:45:00,
2013-03-11 20:50:00,34.2,21.7,29.91,ENE,78,5.8,0.0,60,0.00,,,0.00,WeatherDisplay:10.36,2013-03-12 01:50:00,
2013-03-11 20:55:00,34.2,21.7,29.91,East,100,5.8,5.8,60,0.00,,,0.00,WeatherDisplay:10.36,2013-03-12 01:55:00,
2013-03-11 21:00:00,34.0,21.5,29.91,ENE,72,4.9,4.9,60,0.00,,,0.00,WeatherDisplay:10.36,2013-03-12 02:00:00,
2013-03-11 21:05:00,34.0,21.5,29.91,East,82,4.9,4.9,60,0.00,,,0.00,WeatherDisplay:10.36,2013-03-12 02:05:00,
2013-03-11 21:10:00,34.0,21.1,29.91,NE,53,4.0,4.0,59,0.00,,,0.00,WeatherDisplay:10.36,2013-03-12 02:10:00,
2013-03-11 21:15:00,34.0,21.1,29.91,East,80,4.9,4.9,59,0.00,,,0.00,WeatherDisplay:10.36,2013-03-12 02:15:00,
2013-03-11 21:20:00,34.0,21.5,29.91,SE,128,4.9,4.9,60,0.00,,,0.00,WeatherDisplay:10.36,2013-03-12 02:20:00,
2013-03-11 21:25:00,34.0,21.5,29.91,NE,53,4.9,4.9,60,0.00,,,0.00,WeatherDisplay:10.36,2013-03-12 02:25:00,
2013-03-11 21:30:00,34.0,21.5,29.91,NE,51,5.4,5.4,60,0.00,,,0.00,WeatherDisplay:10.36,2013-03-12 02:30:00,
2013-03-11 21:36:00,34.0,21.5,29.94,NE,53,3.6,3.6,60,0.00,,,0.00,WeatherDisplay:10.36,2013-03-12 02:36:00,
2013-03-11 21:41:00,34.0,21.5,29.94,ENE,59,0.0,3.1,60,0.00,,,0.00,WeatherDisplay:10.36,2013-03-12 02:41:00,
2013-03-11 21:47:00,34.0,21.5,29.94,ENE,63,3.1,3.1,60,0.00,,,0.00,WeatherDisplay:10.36,2013-03-12 02:47:00,
2013-03-11 21:52:00,34.0,21.5,29.94,East,79,6.3,6.3,60,0.00,,,0.00,WeatherDisplay:10.36,2013-03-12 02:52:00,
2013-03-11 21:57:00,33.8,21.4,29.94,NE,50,5.8,5.8,60,0.00,,,0.00,WeatherDisplay:10.36,2013-03-12 02:57:00,
2013-03-11 22:03:00,33.8,21.4,29.94,NE,56,8.1,8.1,60,0.00,,,0.00,WeatherDisplay:10.36,2013-03-12 03:03:00,
2013-03-11 22:08:00,33.6,20.8,29.94,ENE,74,5.8,5.8,59,0.00,,,0.00,WeatherDisplay:10.36,2013-03-12 03:08:00,
2013-03-11 22:13:00,33.6,20.8,29.94,ENE,75,5.8,5.8,59,0.00,,,0.00,WeatherDisplay:10.36,2013-03-12 03:13:00,
2013-03-11 22:18:00,33.4,20.6,29.94,NE,50,5.4,5.4,59,0.00,,,0.00,WeatherDisplay:10.36,2013-03-12 03:18:00,
2013-03-11 22:23:00,33.4,20.6,29.94,ENE,57,6.9,6.9,59,0.00,,,0.00,WeatherDisplay:10.36,2013-03-12 03:23:00,
2013-03-11 22:28:00,33.3,20.1,29.94,ENE,58,6.9,6.9,58,0.00,,,0.00,WeatherDisplay:10.36,2013-03-12 03:28:00,
2013-03-11 22:33:00,33.3,20.1,29.94,ENE,61,3.5,0.0,58,0.00,,,0.00,WeatherDisplay:10.36,2013-03-12 03:33:00,
2013-03-11 22:38:00,33.3,20.1,29.94,East,91,5.8,5.8,58,0.00,,,0.00,WeatherDisplay:10.36,2013-03-12 03:38:00,
2013-03-11 22:43:00,33.3,20.1,29.94,SE,126,4.9,0.0,58,0.00,,,0.00,WeatherDisplay:10.36,2013-03-12 03:43:00,
2013-03-11 22:48:00,33.1,19.9,29.94,ENE,74,4.6,4.6,58,0.00,,,0.00,WeatherDisplay:10.36,2013-03-12 03:48:00,
2013-03-11 22:53:00,33.1,19.9,29.94,NE,53,4.0,0.0,58,0.00,,,0.00,WeatherDisplay:10.36,2013-03-12 03:53:00,
2013-03-11 22:58:00,32.7,19.6,29.94,NE,51,4.5,4.5,58,0.00,,,0.00,WeatherDisplay:10.36,2013-03-12 03:58:00,
2013-03-11 23:00:00,32.7,19.6,29.94,East,89,4.9,4.9,58,0.00,,,0.00,WeatherDisplay:10.36,2013-03-12 04:00:00,
2013-03-11 23:01:00,32.7,19.6,29.94,East,91,0.0,2.7,58,0.00,,,0.00,WeatherDisplay:10.36,2013-03-12 04:01:00,
2013-03-11 23:05:00,32.5,19.4,29.94,ENE,66,5.8,5.8,58,0.00,,,0.00,WeatherDisplay:10.36,2013-03-12 04:05:00,
2013-03-11 23:10:00,32.5,19.4,29.94,East,84,5.8,5.8,58,0.00,,,0.00,WeatherDisplay:10.36,2013-03-12 04:10:00,
2013-03-11 23:15:00,32.4,19.2,29.94,ENE,74,4.6,4.6,58,0.00,,,0.00,WeatherDisplay:10.36,2013-03-12 04:15:00,
2013-03-11 23:18:00,32.2,19.0,29.94,ENE,72,5.8,5.8,58,0.00,,,0.00,WeatherDisplay:10.36,2013-03-12 04:18:00,
2013-03-11 23:23:00,32.2,19.0,29.94,ENE,59,3.5,3.5,58,0.00,,,0.00,WeatherDisplay:10.36,2013-03-12 04:23:00,
2013-03-11 23:28:00,32.0,18.9,29.94,NE,55,4.5,4.5,58,0.00,,,0.00,WeatherDisplay:10.36,2013-03-12 04:28:00,
2013-03-11 23:33:00,31.8,18.7,29.94,ENE,57,3.6,3.6,58,0.00,,,0.00,WeatherDisplay:10.36,2013-03-12 04:33:00,
2013-03-11 23:38:00,31.6,18.5,29.94,NE,54,4.6,4.6,58,0.00,,,0.00,WeatherDisplay:10.36,2013-03-12 04:38:00,
2013-03-11 23:43:00,31.5,18.4,29.94,NE,51,4.0,4.0,58,0.00,,,0.00,WeatherDisplay:10.36,2013-03-12 04:43:00,
2013-03-11 23:48:00,31.5,18.8,29.94,ESE,105,3.5,0.0,59,0.00,,,0.00,WeatherDisplay:10.36,2013-03-12 04:48:00,
2013-03-11 23:53:00,31.3,18.6,29.94,East,80,3.5,0.0,59,0.00,,,0.00,WeatherDisplay:10.36,2013-03-12 04:53:00,
2013-03-11 23:58:00,31.3,18.6,29.94,ENE,69,3.6,3.6,59,0.00,,,0.00,WeatherDisplay:10.36,2013-03-12 04:58:00,